sensor_id;sensor_type;location;lat;lon;timestamp;pressure;altitude;pressure_sealevel;temperature;humidity
13604;BME280;24578;48.264;11.436;2023-06-10T00:03:03;95752.16;;;15.53;100.00
13604;BME280;24578;48.264;11.436;2023-06-10T00:06:25;95749.19;;;15.48;100.00
13604;BME280;24578;48.264;11.436;2023-06-10T00:09:47;95750.28;;;15.37;100.00
13604;BME280;24578;48.264;11.436;2023-06-10T00:13:09;95755.31;;;15.39;100.00
13604;BME280;24578;48.264;11.436;2023-06-10T00:16:33;95763.13;;;15.39;100.00
13604;BME280;24578;48.264;11.436;2023-06-10T00:19:55;95759.81;;;15.29;100.00
13604;BME280;24578;48.264;11.436;2023-06-10T00:23:17;95766.47;;;15.23;100.00
13604;BME280;24578;48.264;11.436;2023-06-10T00:26:39;95761.69;;;15.18;100.00
13604;BME280;24578;48.264;11.436;2023-06-10T00:30:04;95762.31;;;15.12;100.00
13604;BME280;24578;48.264;11.436;2023-06-10T00:33:28;95761.91;;;15.07;100.00
13604;BME280;24578;48.264;11.436;2023-06-10T00:36:50;95755.38;;;15.03;100.00
13604;BME280;24578;48.264;11.436;2023-06-10T00:40:12;95760.91;;;15.00;100.00
13604;BME280;24578;48.264;11.436;2023-06-10T00:43:34;95766.03;;;14.91;100.00
13604;BME280;24578;48.264;11.436;2023-06-10T00:46:56;95760.97;;;14.90;100.00
13604;BME280;24578;48.264;11.436;2023-06-10T00:50:17;95764.03;;;14.85;100.00
13604;BME280;24578;48.264;11.436;2023-06-10T00:53:40;95759.13;;;14.82;100.00
13604;BME280;24578;48.264;11.436;2023-06-10T00:57:04;95763.28;;;14.75;100.00
13604;BME280;24578;48.264;11.436;2023-06-10T01:00:26;95770.41;;;14.73;100.00
13604;BME280;24578;48.264;11.436;2023-06-10T01:03:48;95757.97;;;14.67;100.00
13604;BME280;24578;48.264;11.436;2023-06-10T01:07:25;95759.63;;;14.68;100.00
13604;BME280;24578;48.264;11.436;2023-06-10T01:11:00;95759.38;;;14.61;100.00
13604;BME280;24578;48.264;11.436;2023-06-10T01:14:23;95754.59;;;14.56;100.00
13604;BME280;24578;48.264;11.436;2023-06-10T01:17:58;95754.91;;;14.53;100.00
13604;BME280;24578;48.264;11.436;2023-06-10T01:21:21;95761.38;;;14.49;100.00
13604;BME280;24578;48.264;11.436;2023-06-10T01:24:46;95753.72;;;14.48;100.00
13604;BME280;24578;48.264;11.436;2023-06-10T01:31:42;95752.25;;;14.35;100.00
13604;BME280;24578;48.264;11.436;2023-06-10T01:35:06;95753.00;;;14.27;100.00
13604;BME280;24578;48.264;11.436;2023-06-10T01:38:42;95764.25;;;14.28;100.00
13604;BME280;24578;48.264;11.436;2023-06-10T01:42:05;95763.72;;;14.24;100.00
13604;BME280;24578;48.264;11.436;2023-06-10T01:45:27;95757.97;;;14.21;100.00
13604;BME280;24578;48.264;11.436;2023-06-10T01:48:49;95766.88;;;14.18;100.00
13604;BME280;24578;48.264;11.436;2023-06-10T01:52:11;95771.69;;;14.13;100.00
13604;BME280;24578;48.264;11.436;2023-06-10T01:55:33;95776.53;;;14.08;100.00
13604;BME280;24578;48.264;11.436;2023-06-10T01:58:54;95785.44;;;14.05;100.00
13604;BME280;24578;48.264;11.436;2023-06-10T02:02:20;95783.78;;;14.04;100.00
13604;BME280;24578;48.264;11.436;2023-06-10T02:05:43;95774.50;;;14.01;100.00
13604;BME280;24578;48.264;11.436;2023-06-10T02:09:05;95774.09;;;13.96;100.00
13604;BME280;24578;48.264;11.436;2023-06-10T02:12:27;95778.78;;;13.93;100.00
13604;BME280;24578;48.264;11.436;2023-06-10T02:15:49;95779.88;;;13.90;100.00
13604;BME280;24578;48.264;11.436;2023-06-10T02:19:11;95783.03;;;13.84;100.00
13604;BME280;24578;48.264;11.436;2023-06-10T02:22:34;95781.03;;;13.78;100.00
13604;BME280;24578;48.264;11.436;2023-06-10T02:25:56;95783.22;;;13.73;100.00
13604;BME280;24578;48.264;11.436;2023-06-10T02:29:18;95786.38;;;13.66;100.00
13604;BME280;24578;48.264;11.436;2023-06-10T02:32:39;95784.38;;;13.60;100.00
13604;BME280;24578;48.264;11.436;2023-06-10T02:36:02;95778.06;;;13.53;100.00
13604;BME280;24578;48.264;11.436;2023-06-10T02:39:24;95780.69;;;13.43;100.00
13604;BME280;24578;48.264;11.436;2023-06-10T02:42:46;95780.41;;;13.36;100.00
13604;BME280;24578;48.264;11.436;2023-06-10T02:46:07;95784.38;;;13.31;100.00
13604;BME280;24578;48.264;11.436;2023-06-10T02:49:29;95783.16;;;13.25;100.00
13604;BME280;24578;48.264;11.436;2023-06-10T02:52:51;95784.53;;;13.19;100.00
13604;BME280;24578;48.264;11.436;2023-06-10T02:56:15;95790.16;;;13.15;100.00
13604;BME280;24578;48.264;11.436;2023-06-10T02:59:37;95779.34;;;13.09;100.00
13604;BME280;24578;48.264;11.436;2023-06-10T03:02:59;95783.03;;;13.07;100.00
13604;BME280;24578;48.264;11.436;2023-06-10T03:06:24;95788.34;;;13.05;100.00
13604;BME280;24578;48.264;11.436;2023-06-10T03:09:46;95782.22;;;13.06;100.00
13604;BME280;24578;48.264;11.436;2023-06-10T03:13:08;95794.66;;;13.03;100.00
13604;BME280;24578;48.264;11.436;2023-06-10T03:16:31;95796.72;;;12.99;100.00
13604;BME280;24578;48.264;11.436;2023-06-10T03:19:53;95797.38;;;13.01;100.00
13604;BME280;24578;48.264;11.436;2023-06-10T03:23:15;95799.03;;;13.02;100.00
13604;BME280;24578;48.264;11.436;2023-06-10T03:26:37;95800.41;;;13.06;100.00
13604;BME280;24578;48.264;11.436;2023-06-10T03:29:58;95803.69;;;13.08;100.00
13604;BME280;24578;48.264;11.436;2023-06-10T03:33:20;95796.56;;;13.10;100.00
13604;BME280;24578;48.264;11.436;2023-06-10T03:36:42;95803.78;;;13.17;100.00
13604;BME280;24578;48.264;11.436;2023-06-10T03:40:04;95808.19;;;13.16;100.00
13604;BME280;24578;48.264;11.436;2023-06-10T03:43:27;95807.66;;;13.22;100.00
13604;BME280;24578;48.264;11.436;2023-06-10T03:46:49;95810.91;;;13.24;100.00
13604;BME280;24578;48.264;11.436;2023-06-10T03:50:10;95822.25;;;13.33;100.00
13604;BME280;24578;48.264;11.436;2023-06-10T03:53:32;95827.72;;;13.69;100.00
13604;BME280;24578;48.264;11.436;2023-06-10T03:56:54;95825.72;;;14.39;100.00
13604;BME280;24578;48.264;11.436;2023-06-10T04:00:16;95818.47;;;15.06;100.00
13604;BME280;24578;48.264;11.436;2023-06-10T04:03:39;95819.88;;;15.63;100.00
13604;BME280;24578;48.264;11.436;2023-06-10T04:07:04;95820.97;;;16.05;100.00
13604;BME280;24578;48.264;11.436;2023-06-10T04:10:26;95821.38;;;16.70;100.00
13604;BME280;24578;48.264;11.436;2023-06-10T04:13:49;95824.94;;;17.45;100.00
13604;BME280;24578;48.264;11.436;2023-06-10T04:17:11;95824.22;;;18.09;100.00
13604;BME280;24578;48.264;11.436;2023-06-10T04:20:32;95817.25;;;18.72;100.00
13604;BME280;24578;48.264;11.436;2023-06-10T04:23:54;95820.47;;;19.38;100.00
13604;BME280;24578;48.264;11.436;2023-06-10T04:27:16;95822.50;;;19.89;100.00
13604;BME280;24578;48.264;11.436;2023-06-10T04:30:38;95821.69;;;20.33;100.00
13604;BME280;24578;48.264;11.436;2023-06-10T04:34:00;95824.53;;;20.68;100.00
13604;BME280;24578;48.264;11.436;2023-06-10T04:37:22;95823.41;;;21.08;100.00
13604;BME280;24578;48.264;11.436;2023-06-10T04:40:44;95819.13;;;21.50;100.00
13604;BME280;24578;48.264;11.436;2023-06-10T04:44:05;95816.34;;;21.80;100.00
13604;BME280;24578;48.264;11.436;2023-06-10T04:47:27;95820.09;;;22.34;100.00
13604;BME280;24578;48.264;11.436;2023-06-10T04:50:50;95819.53;;;22.94;100.00
13604;BME280;24578;48.264;11.436;2023-06-10T04:54:12;95817.81;;;23.42;100.00
13604;BME280;24578;48.264;11.436;2023-06-10T04:57:33;95816.38;;;23.93;92.71
13604;BME280;24578;48.264;11.436;2023-06-10T05:00:55;95814.44;;;24.47;87.29
13604;BME280;24578;48.264;11.436;2023-06-10T05:04:17;95810.31;;;25.11;80.35
13604;BME280;24578;48.264;11.436;2023-06-10T05:07:38;95813.69;;;25.57;75.55
13604;BME280;24578;48.264;11.436;2023-06-10T05:11:00;95812.78;;;25.88;71.53
13604;BME280;24578;48.264;11.436;2023-06-10T05:14:22;95814.88;;;26.05;68.67
13604;BME280;24578;48.264;11.436;2023-06-10T05:17:44;95809.28;;;26.20;67.65
13604;BME280;24578;48.264;11.436;2023-06-10T05:21:06;95822.31;;;26.58;64.63
13604;BME280;24578;48.264;11.436;2023-06-10T05:24:28;95818.25;;;27.05;60.63
13604;BME280;24578;48.264;11.436;2023-06-10T05:27:49;95819.50;;;27.33;57.15
13604;BME280;24578;48.264;11.436;2023-06-10T05:31:11;95827.91;;;27.72;55.62
13604;BME280;24578;48.264;11.436;2023-06-10T05:34:33;95818.69;;;28.10;52.61
13604;BME280;24578;48.264;11.436;2023-06-10T05:37:55;95832.91;;;28.16;50.87
13604;BME280;24578;48.264;11.436;2023-06-10T05:41:16;95823.50;;;28.37;50.64
13604;BME280;24578;48.264;11.436;2023-06-10T05:44:38;95834.03;;;28.44;48.95
13604;BME280;24578;48.264;11.436;2023-06-10T05:48:00;95829.81;;;28.72;49.52
13604;BME280;24578;48.264;11.436;2023-06-10T05:51:22;95826.22;;;29.07;46.45
13604;BME280;24578;48.264;11.436;2023-06-10T05:54:43;95826.69;;;29.04;46.17
13604;BME280;24578;48.264;11.436;2023-06-10T05:58:05;95822.75;;;29.53;45.88
13604;BME280;24578;48.264;11.436;2023-06-10T06:01:27;95817.03;;;30.34;43.84
13604;BME280;24578;48.264;11.436;2023-06-10T06:04:49;95821.72;;;30.66;40.86
13604;BME280;24578;48.264;11.436;2023-06-10T06:08:10;95824.44;;;30.49;41.05
13604;BME280;24578;48.264;11.436;2023-06-10T06:11:33;95816.66;;;30.48;41.13
13604;BME280;24578;48.264;11.436;2023-06-10T06:14:55;95818.88;;;30.12;43.03
13604;BME280;24578;48.264;11.436;2023-06-10T06:18:17;95825.44;;;30.65;41.77
13604;BME280;24578;48.264;11.436;2023-06-10T06:21:42;95832.09;;;30.85;40.40
13604;BME280;24578;48.264;11.436;2023-06-10T06:25:04;95826.47;;;29.86;41.95
13604;BME280;24578;48.264;11.436;2023-06-10T06:28:26;95834.41;;;28.89;46.53
13604;BME280;24578;48.264;11.436;2023-06-10T06:31:50;95830.63;;;28.61;47.62
13604;BME280;24578;48.264;11.436;2023-06-10T06:35:12;95825.41;;;28.66;47.38
13604;BME280;24578;48.264;11.436;2023-06-10T06:38:34;95832.91;;;28.40;48.73
13604;BME280;24578;48.264;11.436;2023-06-10T06:41:55;95829.19;;;27.93;50.30
13604;BME280;24578;48.264;11.436;2023-06-10T06:45:17;95826.88;;;28.21;50.50
13604;BME280;24578;48.264;11.436;2023-06-10T06:48:39;95838.81;;;28.30;49.52
13604;BME280;24578;48.264;11.436;2023-06-10T06:52:01;95842.75;;;27.07;51.63
13604;BME280;24578;48.264;11.436;2023-06-10T06:55:23;95844.53;;;25.95;57.20
13604;BME280;24578;48.264;11.436;2023-06-10T06:58:45;95844.00;;;25.86;59.47
13604;BME280;24578;48.264;11.436;2023-06-10T07:02:06;95848.06;;;26.33;58.91
13604;BME280;24578;48.264;11.436;2023-06-10T07:05:28;95842.25;;;27.71;53.67
13604;BME280;24578;48.264;11.436;2023-06-10T07:08:50;95847.91;;;29.28;45.75
13604;BME280;24578;48.264;11.436;2023-06-10T07:12:12;95848.34;;;30.83;41.61
13604;BME280;24578;48.264;11.436;2023-06-10T07:15:34;95841.59;;;31.85;38.31
13604;BME280;24578;48.264;11.436;2023-06-10T07:18:56;95848.06;;;32.86;35.48
13604;BME280;24578;48.264;11.436;2023-06-10T07:22:18;95850.03;;;33.16;34.78
13604;BME280;24578;48.264;11.436;2023-06-10T07:25:41;95837.69;;;33.00;34.22
13604;BME280;24578;48.264;11.436;2023-06-10T07:29:03;95840.19;;;33.89;32.71
13604;BME280;24578;48.264;11.436;2023-06-10T07:32:24;95836.19;;;34.94;31.04
13604;BME280;24578;48.264;11.436;2023-06-10T07:35:46;95839.06;;;35.82;28.39
13604;BME280;24578;48.264;11.436;2023-06-10T07:39:08;95832.78;;;35.22;28.78
13604;BME280;24578;48.264;11.436;2023-06-10T07:42:32;95832.47;;;35.29;29.87
13604;BME280;24578;48.264;11.436;2023-06-10T07:45:54;95838.09;;;35.67;29.33
13604;BME280;24578;48.264;11.436;2023-06-10T07:49:16;95829.59;;;36.19;27.45
13604;BME280;24578;48.264;11.436;2023-06-10T07:52:38;95829.56;;;35.95;27.96
13604;BME280;24578;48.264;11.436;2023-06-10T07:55:59;95827.09;;;35.99;28.26
13604;BME280;24578;48.264;11.436;2023-06-10T07:59:21;95829.75;;;36.28;27.66
13604;BME280;24578;48.264;11.436;2023-06-10T08:02:43;95815.94;;;36.83;26.93
13604;BME280;24578;48.264;11.436;2023-06-10T08:06:05;95819.53;;;36.98;25.49
13604;BME280;24578;48.264;11.436;2023-06-10T08:09:27;95817.53;;;36.84;26.14
13604;BME280;24578;48.264;11.436;2023-06-10T08:12:49;95823.25;;;37.21;25.72
13604;BME280;24578;48.264;11.436;2023-06-10T08:16:10;95818.28;;;37.28;25.48
13604;BME280;24578;48.264;11.436;2023-06-10T08:19:32;95826.38;;;36.66;26.39
13604;BME280;24578;48.264;11.436;2023-06-10T08:22:54;95824.38;;;36.77;25.59
13604;BME280;24578;48.264;11.436;2023-06-10T08:26:15;95827.44;;;36.89;25.71
13604;BME280;24578;48.264;11.436;2023-06-10T08:29:37;95837.06;;;36.52;25.58
13604;BME280;24578;48.264;11.436;2023-06-10T08:32:59;95839.53;;;36.48;26.29
13604;BME280;24578;48.264;11.436;2023-06-10T08:36:23;95834.47;;;36.41;25.24
13604;BME280;24578;48.264;11.436;2023-06-10T08:39:44;95827.13;;;36.71;25.78
13604;BME280;24578;48.264;11.436;2023-06-10T08:43:09;95835.31;;;35.43;27.49
13604;BME280;24578;48.264;11.436;2023-06-10T08:46:33;95845.38;;;35.67;27.79
13604;BME280;24578;48.264;11.436;2023-06-10T08:49:55;95836.72;;;36.59;25.75
13604;BME280;24578;48.264;11.436;2023-06-10T08:53:20;95835.28;;;37.10;24.79
13604;BME280;24578;48.264;11.436;2023-06-10T08:56:43;95819.59;;;37.50;24.44
13604;BME280;24578;48.264;11.436;2023-06-10T09:00:06;95828.81;;;36.86;25.49
13604;BME280;24578;48.264;11.436;2023-06-10T09:03:29;95836.66;;;35.06;27.62
13604;BME280;24578;48.264;11.436;2023-06-10T09:06:52;95837.75;;;35.79;27.25
13604;BME280;24578;48.264;11.436;2023-06-10T09:10:16;95825.66;;;36.60;26.22
13604;BME280;24578;48.264;11.436;2023-06-10T09:13:38;95826.34;;;36.90;25.37
13604;BME280;24578;48.264;11.436;2023-06-10T09:16:59;95835.31;;;35.48;26.42
13604;BME280;24578;48.264;11.436;2023-06-10T09:20:21;95830.28;;;36.30;25.90
13604;BME280;24578;48.264;11.436;2023-06-10T09:23:43;95826.72;;;37.41;24.82
13604;BME280;24578;48.264;11.436;2023-06-10T09:27:07;95818.69;;;37.88;24.20
13604;BME280;24578;48.264;11.436;2023-06-10T09:30:34;95823.25;;;37.73;24.15
13604;BME280;24578;48.264;11.436;2023-06-10T09:34:08;95825.88;;;37.26;24.47
13604;BME280;24578;48.264;11.436;2023-06-10T09:37:30;95826.88;;;34.60;25.95
13604;BME280;24578;48.264;11.436;2023-06-10T09:40:53;95826.47;;;34.22;27.02
13604;BME280;24578;48.264;11.436;2023-06-10T09:44:16;95824.59;;;34.93;26.74
13604;BME280;24578;48.264;11.436;2023-06-10T09:47:38;95824.44;;;35.59;26.47
13604;BME280;24578;48.264;11.436;2023-06-10T09:51:00;95834.25;;;35.44;27.06
13604;BME280;24578;48.264;11.436;2023-06-10T09:54:22;95813.66;;;36.71;25.20
13604;BME280;24578;48.264;11.436;2023-06-10T09:57:44;95826.81;;;36.97;24.72
13604;BME280;24578;48.264;11.436;2023-06-10T10:01:11;95815.09;;;37.26;23.48
13604;BME280;24578;48.264;11.436;2023-06-10T10:04:35;95824.69;;;37.13;24.05
13604;BME280;24578;48.264;11.436;2023-06-10T10:07:57;95823.44;;;37.96;23.39
13604;BME280;24578;48.264;11.436;2023-06-10T10:11:21;95820.44;;;37.65;24.24
13604;BME280;24578;48.264;11.436;2023-06-10T10:14:48;95825.56;;;37.99;23.31
13604;BME280;24578;48.264;11.436;2023-06-10T10:18:14;95824.63;;;37.90;23.09
13604;BME280;24578;48.264;11.436;2023-06-10T10:21:44;95818.53;;;37.65;23.09
13604;BME280;24578;48.264;11.436;2023-06-10T10:25:13;95816.94;;;37.64;24.20
13604;BME280;24578;48.264;11.436;2023-06-10T10:28:42;95815.75;;;38.87;23.08
13604;BME280;24578;48.264;11.436;2023-06-10T10:32:06;95817.91;;;37.87;24.08
13604;BME280;24578;48.264;11.436;2023-06-10T10:35:30;95829.56;;;35.90;26.34
13604;BME280;24578;48.264;11.436;2023-06-10T10:38:52;95824.03;;;34.30;28.24
13604;BME280;24578;48.264;11.436;2023-06-10T10:42:15;95832.34;;;33.25;30.00
13604;BME280;24578;48.264;11.436;2023-06-10T10:45:39;95830.72;;;32.40;31.27
13604;BME280;24578;48.264;11.436;2023-06-10T10:49:01;95832.03;;;31.62;31.85
13604;BME280;24578;48.264;11.436;2023-06-10T10:52:23;95839.97;;;30.13;34.76
13604;BME280;24578;48.264;11.436;2023-06-10T10:56:07;95835.13;;;29.42;36.35
13604;BME280;24578;48.264;11.436;2023-06-10T10:59:43;95835.56;;;28.81;38.87
13604;BME280;24578;48.264;11.436;2023-06-10T11:03:07;95833.41;;;28.66;39.29
13604;BME280;24578;48.264;11.436;2023-06-10T11:06:28;95829.34;;;28.75;38.68
13604;BME280;24578;48.264;11.436;2023-06-10T11:10:08;95829.03;;;29.00;38.37
13604;BME280;24578;48.264;11.436;2023-06-10T11:13:30;95820.31;;;29.34;38.47
13604;BME280;24578;48.264;11.436;2023-06-10T11:16:51;95827.13;;;29.59;37.39
13604;BME280;24578;48.264;11.436;2023-06-10T11:24:14;95830.00;;;30.26;36.06
13604;BME280;24578;48.264;11.436;2023-06-10T11:27:38;95827.28;;;30.43;35.25
13604;BME280;24578;48.264;11.436;2023-06-10T11:31:00;95828.72;;;30.50;34.56
13604;BME280;24578;48.264;11.436;2023-06-10T11:34:23;95829.50;;;30.29;35.74
13604;BME280;24578;48.264;11.436;2023-06-10T11:37:46;95824.16;;;30.29;36.27
13604;BME280;24578;48.264;11.436;2023-06-10T11:41:08;95821.72;;;30.89;34.86
13604;BME280;24578;48.264;11.436;2023-06-10T11:44:53;95826.19;;;31.33;33.21
13604;BME280;24578;48.264;11.436;2023-06-10T11:48:15;95820.19;;;31.53;33.43
13604;BME280;24578;48.264;11.436;2023-06-10T11:51:39;95818.09;;;31.27;33.88
13604;BME280;24578;48.264;11.436;2023-06-10T11:55:02;95812.25;;;32.44;32.89
13604;BME280;24578;48.264;11.436;2023-06-10T11:58:24;95803.38;;;33.33;31.92
13604;BME280;24578;48.264;11.436;2023-06-10T12:01:46;95802.78;;;34.39;29.91
13604;BME280;24578;48.264;11.436;2023-06-10T12:05:14;95803.06;;;34.33;28.90
13604;BME280;24578;48.264;11.436;2023-06-10T12:08:42;95806.84;;;34.31;28.57
13604;BME280;24578;48.264;11.436;2023-06-10T12:12:05;95803.63;;;34.24;28.37
13604;BME280;24578;48.264;11.436;2023-06-10T12:15:27;95800.72;;;33.84;29.03
13604;BME280;24578;48.264;11.436;2023-06-10T12:18:50;95786.44;;;34.20;28.98
13604;BME280;24578;48.264;11.436;2023-06-10T12:22:13;95788.50;;;34.54;29.30
13604;BME280;24578;48.264;11.436;2023-06-10T12:25:35;95796.56;;;35.10;28.27
13604;BME280;24578;48.264;11.436;2023-06-10T12:28:58;95787.09;;;35.17;26.55
13604;BME280;24578;48.264;11.436;2023-06-10T12:32:20;95781.50;;;35.48;26.30
13604;BME280;24578;48.264;11.436;2023-06-10T12:35:48;95787.09;;;35.17;26.83
13604;BME280;24578;48.264;11.436;2023-06-10T12:39:10;95785.69;;;34.80;26.88
13604;BME280;24578;48.264;11.436;2023-06-10T12:42:32;95777.84;;;34.23;27.52
13604;BME280;24578;48.264;11.436;2023-06-10T12:46:08;95786.41;;;32.75;28.54
13604;BME280;24578;48.264;11.436;2023-06-10T12:49:31;95769.69;;;32.47;30.46
13604;BME280;24578;48.264;11.436;2023-06-10T12:52:52;95772.81;;;33.34;29.86
13604;BME280;24578;48.264;11.436;2023-06-10T12:56:14;95759.94;;;32.89;29.96
13604;BME280;24578;48.264;11.436;2023-06-10T12:59:36;95765.31;;;33.00;29.00
13604;BME280;24578;48.264;11.436;2023-06-10T13:03:00;95761.47;;;32.64;29.62
13604;BME280;24578;48.264;11.436;2023-06-10T13:06:22;95764.50;;;33.97;28.25
13604;BME280;24578;48.264;11.436;2023-06-10T13:09:45;95748.78;;;35.01;26.60
13604;BME280;24578;48.264;11.436;2023-06-10T13:13:10;95753.44;;;35.84;25.81
13604;BME280;24578;48.264;11.436;2023-06-10T13:16:32;95761.47;;;35.94;26.44
13604;BME280;24578;48.264;11.436;2023-06-10T13:19:54;95780.19;;;35.06;28.49
13604;BME280;24578;48.264;11.436;2023-06-10T13:23:16;95762.41;;;35.10;28.89
13604;BME280;24578;48.264;11.436;2023-06-10T13:26:37;95766.22;;;35.04;28.71
13604;BME280;24578;48.264;11.436;2023-06-10T13:29:59;95763.91;;;34.82;28.47
13604;BME280;24578;48.264;11.436;2023-06-10T13:33:21;95758.22;;;34.33;30.41
13604;BME280;24578;48.264;11.436;2023-06-10T13:36:43;95761.53;;;34.04;30.18
13604;BME280;24578;48.264;11.436;2023-06-10T13:40:05;95761.00;;;34.02;29.06
13604;BME280;24578;48.264;11.436;2023-06-10T13:43:27;95766.38;;;33.09;30.88
13604;BME280;24578;48.264;11.436;2023-06-10T13:46:50;95766.13;;;33.05;30.46
13604;BME280;24578;48.264;11.436;2023-06-10T13:50:12;95758.06;;;32.95;30.86
13604;BME280;24578;48.264;11.436;2023-06-10T13:53:34;95756.22;;;33.01;30.39
13604;BME280;24578;48.264;11.436;2023-06-10T13:56:57;95752.56;;;32.43;31.56
13604;BME280;24578;48.264;11.436;2023-06-10T14:00:19;95745.25;;;32.28;31.77
13604;BME280;24578;48.264;11.436;2023-06-10T14:03:40;95748.13;;;32.11;31.06
13604;BME280;24578;48.264;11.436;2023-06-10T14:07:02;95747.75;;;32.50;30.29
13604;BME280;24578;48.264;11.436;2023-06-10T14:10:24;95737.16;;;32.87;29.62
13604;BME280;24578;48.264;11.436;2023-06-10T14:13:46;95744.31;;;32.60;31.43
13604;BME280;24578;48.264;11.436;2023-06-10T14:17:08;95757.78;;;32.23;32.13
13604;BME280;24578;48.264;11.436;2023-06-10T14:20:30;95754.19;;;31.21;34.12
13604;BME280;24578;48.264;11.436;2023-06-10T14:23:52;95753.22;;;30.11;38.49
13604;BME280;24578;48.264;11.436;2023-06-10T14:27:14;95755.69;;;29.27;40.77
13604;BME280;24578;48.264;11.436;2023-06-10T14:30:36;95768.53;;;28.43;45.98
13604;BME280;24578;48.264;11.436;2023-06-10T14:33:58;95765.59;;;28.04;46.63
13604;BME280;24578;48.264;11.436;2023-06-10T14:37:20;95764.69;;;27.62;48.33
13604;BME280;24578;48.264;11.436;2023-06-10T14:40:42;95763.41;;;27.53;46.23
13604;BME280;24578;48.264;11.436;2023-06-10T14:44:03;95762.66;;;27.34;41.71
13604;BME280;24578;48.264;11.436;2023-06-10T14:47:25;95764.06;;;27.25;42.65
13604;BME280;24578;48.264;11.436;2023-06-10T14:50:47;95764.97;;;27.30;44.40
13604;BME280;24578;48.264;11.436;2023-06-10T14:54:12;95761.03;;;27.21;40.11
13604;BME280;24578;48.264;11.436;2023-06-10T14:57:34;95765.19;;;27.17;41.96
13604;BME280;24578;48.264;11.436;2023-06-10T15:00:56;95768.53;;;26.82;42.28
13604;BME280;24578;48.264;11.436;2023-06-10T15:04:18;95774.72;;;26.75;41.65
13604;BME280;24578;48.264;11.436;2023-06-10T15:07:41;95774.13;;;26.73;41.29
13604;BME280;24578;48.264;11.436;2023-06-10T15:11:03;95760.63;;;26.44;41.46
13604;BME280;24578;48.264;11.436;2023-06-10T15:14:25;95768.41;;;26.39;42.34
13604;BME280;24578;48.264;11.436;2023-06-10T15:17:47;95764.81;;;26.34;44.75
13604;BME280;24578;48.264;11.436;2023-06-10T15:21:09;95765.03;;;26.51;45.92
13604;BME280;24578;48.264;11.436;2023-06-10T15:24:30;95760.19;;;26.48;46.03
13604;BME280;24578;48.264;11.436;2023-06-10T15:27:52;95754.81;;;26.36;46.09
13604;BME280;24578;48.264;11.436;2023-06-10T15:31:14;95762.13;;;26.22;46.17
13604;BME280;24578;48.264;11.436;2023-06-10T15:34:36;95756.50;;;26.11;45.60
13604;BME280;24578;48.264;11.436;2023-06-10T15:37:57;95757.50;;;26.10;44.98
13604;BME280;24578;48.264;11.436;2023-06-10T15:41:19;95761.84;;;26.05;42.35
13604;BME280;24578;48.264;11.436;2023-06-10T15:44:42;95772.66;;;25.84;43.74
13604;BME280;24578;48.264;11.436;2023-06-10T15:48:04;95770.53;;;25.93;44.57
13604;BME280;24578;48.264;11.436;2023-06-10T15:51:26;95771.88;;;26.03;44.83
13604;BME280;24578;48.264;11.436;2023-06-10T15:54:47;95765.69;;;25.90;46.13
13604;BME280;24578;48.264;11.436;2023-06-10T15:58:09;95766.94;;;25.88;46.78
13604;BME280;24578;48.264;11.436;2023-06-10T16:01:31;95765.38;;;25.80;47.65
13604;BME280;24578;48.264;11.436;2023-06-10T16:04:53;95765.94;;;25.63;47.46
13604;BME280;24578;48.264;11.436;2023-06-10T16:08:14;95769.25;;;25.59;47.22
13604;BME280;24578;48.264;11.436;2023-06-10T16:11:36;95766.25;;;25.48;46.19
13604;BME280;24578;48.264;11.436;2023-06-10T16:14:58;95766.13;;;25.43;48.57
13604;BME280;24578;48.264;11.436;2023-06-10T16:18:20;95777.16;;;25.33;50.57
13604;BME280;24578;48.264;11.436;2023-06-10T16:21:42;95776.66;;;25.18;51.70
13604;BME280;24578;48.264;11.436;2023-06-10T16:25:04;95779.00;;;25.01;48.66
13604;BME280;24578;48.264;11.436;2023-06-10T16:28:26;95780.56;;;24.76;48.91
13604;BME280;24578;48.264;11.436;2023-06-10T16:31:47;95790.03;;;24.52;52.28
13604;BME280;24578;48.264;11.436;2023-06-10T16:35:10;95793.94;;;24.36;54.13
13604;BME280;24578;48.264;11.436;2023-06-10T16:38:32;95799.09;;;24.11;55.42
13604;BME280;24578;48.264;11.436;2023-06-10T16:41:54;95812.91;;;24.13;56.22
13604;BME280;24578;48.264;11.436;2023-06-10T16:45:15;95805.81;;;23.93;57.09
13604;BME280;24578;48.264;11.436;2023-06-10T16:48:37;95809.28;;;23.87;56.91
13604;BME280;24578;48.264;11.436;2023-06-10T16:51:59;95808.47;;;23.80;57.16
13604;BME280;24578;48.264;11.436;2023-06-10T16:55:21;95816.38;;;23.86;56.78
13604;BME280;24578;48.264;11.436;2023-06-10T16:58:42;95807.25;;;24.09;55.55
13604;BME280;24578;48.264;11.436;2023-06-10T17:02:04;95811.66;;;24.36;53.74
13604;BME280;24578;48.264;11.436;2023-06-10T17:05:26;95813.44;;;24.42;53.12
13604;BME280;24578;48.264;11.436;2023-06-10T17:08:48;95809.34;;;24.53;53.36
13604;BME280;24578;48.264;11.436;2023-06-10T17:12:10;95809.28;;;24.66;53.20
13604;BME280;24578;48.264;11.436;2023-06-10T17:15:32;95821.91;;;24.71;54.02
13604;BME280;24578;48.264;11.436;2023-06-10T17:18:54;95829.69;;;24.59;56.81
13604;BME280;24578;48.264;11.436;2023-06-10T17:22:15;95829.38;;;24.22;58.49
13604;BME280;24578;48.264;11.436;2023-06-10T17:25:37;95836.34;;;24.02;60.29
13604;BME280;24578;48.264;11.436;2023-06-10T17:28:59;95833.25;;;23.85;61.52
13604;BME280;24578;48.264;11.436;2023-06-10T17:32:23;95823.53;;;23.72;62.28
13604;BME280;24578;48.264;11.436;2023-06-10T17:35:45;95826.97;;;23.73;63.59
13604;BME280;24578;48.264;11.436;2023-06-10T17:39:06;95828.38;;;23.69;64.32
13604;BME280;24578;48.264;11.436;2023-06-10T17:42:28;95840.78;;;23.62;64.13
13604;BME280;24578;48.264;11.436;2023-06-10T17:45:50;95839.16;;;23.54;65.08